createdAt,value
2023-01-29T00:01:31.445Z,102610.59
2023-01-29T00:03:59.026Z,102616.31
2023-01-29T00:06:26.615Z,102611.81
2023-01-29T00:08:55.563Z,102621.88
2023-01-29T00:11:24.049Z,102621.63
2023-01-29T00:13:51.936Z,102618.97
2023-01-29T00:16:19.643Z,102609.81
2023-01-29T00:18:47.845Z,102598.84
2023-01-29T00:21:17.275Z,102598.94
2023-01-29T00:24:41.090Z,102587.22
2023-01-29T00:27:10.830Z,102589.66
2023-01-29T00:29:38.406Z,102589.56
2023-01-29T00:32:06.441Z,102576.72
2023-01-29T00:34:34.103Z,102567.00
2023-01-29T00:37:08.810Z,102558.94
2023-01-29T00:39:47.706Z,102550.28
2023-01-29T00:42:34.591Z,102548.13
2023-01-29T00:45:02.180Z,102538.72
2023-01-29T00:47:33.354Z,102554.06
2023-01-29T00:50:01.695Z,102550.28
2023-01-29T00:52:29.858Z,102562.06
2023-01-29T00:54:58.944Z,102545.16
2023-01-29T00:57:31.042Z,102554.31
2023-01-29T00:59:58.677Z,102558.28
2023-01-29T01:02:44.282Z,102572.47
2023-01-29T01:05:18.079Z,102565.56
2023-01-29T01:07:46.241Z,102568.69
2023-01-29T01:10:21.162Z,102565.72
2023-01-29T01:12:51.960Z,102565.19
2023-01-29T01:15:20.245Z,102567.41
2023-01-29T01:17:48.804Z,102556.69
2023-01-29T01:20:16.943Z,102567.44
2023-01-29T01:22:44.684Z,102550.63
2023-01-29T01:25:12.281Z,102555.66
2023-01-29T01:27:41.283Z,102565.66
2023-01-29T01:30:14.536Z,102562.06
2023-01-29T01:32:43.553Z,102562.84
2023-01-29T01:35:13.682Z,102575.13
2023-01-29T01:37:41.641Z,102559.44
2023-01-29T01:40:17.993Z,102554.19
2023-01-29T01:42:48.300Z,102563.72
2023-01-29T01:45:23.251Z,102565.94
2023-01-29T01:47:55.576Z,102551.88
2023-01-29T01:50:27.865Z,102552.78
2023-01-29T01:53:00.945Z,102563.16
2023-01-29T01:55:31.177Z,102566.69
2023-01-29T01:58:03.396Z,102559.41
2023-01-29T02:00:32.367Z,102557.22
2023-01-29T02:03:20.070Z,102549.38
2023-01-29T02:06:06.244Z,102554.31
2023-01-29T02:08:57.519Z,102549.47
2023-01-29T02:11:26.198Z,102550.63
2023-01-29T02:13:54.495Z,102543.13
2023-01-29T02:16:24.664Z,102542.38
2023-01-29T02:18:52.606Z,102534.25
2023-01-29T02:21:51.640Z,102547.66
2023-01-29T02:24:54.281Z,102537.22
2023-01-29T02:27:28.155Z,102537.06
2023-01-29T02:30:06.898Z,102527.88
2023-01-29T02:32:54.684Z,102528.59
2023-01-29T02:35:32.027Z,102522.81
2023-01-29T02:38:12.863Z,102530.19
2023-01-29T02:40:45.122Z,102533.41
2023-01-29T02:43:24.368Z,102532.53
2023-01-29T02:46:01.240Z,102518.78
2023-01-29T02:48:39.912Z,102513.38
2023-01-29T02:51:15.052Z,102523.22
2023-01-29T02:53:52.118Z,102508.00
2023-01-29T02:56:25.088Z,102505.22
2023-01-29T02:58:58.402Z,102504.56
2023-01-29T03:01:33.921Z,102490.56
2023-01-29T03:04:08.071Z,102489.25
2023-01-29T03:06:39.529Z,102485.41
2023-01-29T03:09:12.342Z,102479.72
2023-01-29T03:11:43.308Z,102479.34
2023-01-29T03:14:16.860Z,102464.84
2023-01-29T03:16:49.987Z,102463.50
2023-01-29T03:19:20.401Z,102455.66
2023-01-29T03:21:59.065Z,102463.69
2023-01-29T03:24:52.692Z,102466.47
2023-01-29T03:27:42.109Z,102459.03
2023-01-29T03:30:29.926Z,102465.97
2023-01-29T03:33:01.921Z,102458.25
2023-01-29T03:35:35.361Z,102447.16
2023-01-29T03:38:04.428Z,102454.09
2023-01-29T03:40:39.607Z,102397.41
2023-01-29T03:43:13.194Z,102443.31
2023-01-29T03:45:51.331Z,102445.59
2023-01-29T03:48:33.133Z,102448.09
2023-01-29T03:51:13.130Z,102449.31
2023-01-29T03:53:45.311Z,102450.28
2023-01-29T03:56:23.641Z,102455.47
2023-01-29T03:58:57.625Z,102446.75
2023-01-29T04:01:31.134Z,102452.56
2023-01-29T04:04:06.755Z,102442.84
2023-01-29T04:06:38.926Z,102414.44
2023-01-29T04:09:13.533Z,102438.50
2023-01-29T04:11:46.120Z,102441.94
2023-01-29T04:14:15.343Z,102434.16
2023-01-29T04:16:49.134Z,102433.09
2023-01-29T04:19:18.229Z,102421.38
2023-01-29T04:21:50.210Z,102411.78
2023-01-29T04:24:18.594Z,102416.34
2023-01-29T04:27:06.306Z,102410.63
2023-01-29T04:29:48.489Z,102411.31
2023-01-29T04:32:23.113Z,102423.50
2023-01-29T04:35:01.921Z,102418.41
2023-01-29T04:37:38.678Z,102416.19
2023-01-29T04:40:19.201Z,102414.25
2023-01-29T04:42:56.142Z,102426.97
2023-01-29T04:45:34.138Z,102425.88
2023-01-29T04:48:10.758Z,102435.13
2023-01-29T04:50:45.268Z,102425.97
2023-01-29T04:53:19.553Z,102442.41
2023-01-29T04:55:52.313Z,102446.56
2023-01-29T04:58:27.761Z,102436.56
2023-01-29T05:00:56.175Z,102438.59
2023-01-29T05:03:27.593Z,102440.19
2023-01-29T05:05:59.374Z,102431.16
2023-01-29T05:08:29.477Z,102430.44
2023-01-29T05:10:58.674Z,102423.56
2023-01-29T05:13:27.773Z,102408.44
2023-01-29T05:16:00.580Z,102392.50
2023-01-29T05:18:29.502Z,102405.41
2023-01-29T05:21:04.142Z,102374.25
2023-01-29T05:23:31.942Z,102375.94
2023-01-29T05:25:59.750Z,102384.78
2023-01-29T05:28:26.360Z,102391.94
2023-01-29T05:30:56.505Z,102390.72
2023-01-29T05:33:25.597Z,102399.84
2023-01-29T05:35:53.296Z,102400.94
2023-01-29T05:38:22.843Z,102407.03
2023-01-29T05:40:50.648Z,102393.78
2023-01-29T05:43:20.113Z,102386.53
2023-01-29T05:45:54.063Z,102386.97
2023-01-29T05:48:21.717Z,102370.13
2023-01-29T05:50:49.646Z,102368.53
2023-01-29T05:53:17.423Z,102365.41
2023-01-29T05:55:47.178Z,102390.38
2023-01-29T05:58:15.211Z,102391.47
2023-01-29T06:00:43.170Z,102392.09
2023-01-29T06:03:10.792Z,102391.97
2023-01-29T06:05:39.079Z,102397.44
2023-01-29T06:08:07.938Z,102394.00
2023-01-29T06:10:36.004Z,102391.72
2023-01-29T06:13:04.992Z,102385.44
2023-01-29T06:15:32.587Z,102377.59
2023-01-29T06:18:00.206Z,102375.06
2023-01-29T06:20:27.854Z,102387.19
2023-01-29T06:22:55.493Z,102346.56
2023-01-29T06:25:23.106Z,102353.69
2023-01-29T06:27:51.653Z,102359.97
2023-01-29T06:30:20.976Z,102353.53
2023-01-29T06:32:48.570Z,102358.41
2023-01-29T06:35:16.203Z,102367.41
2023-01-29T06:37:43.795Z,102363.34
2023-01-29T06:40:12.534Z,102340.56
2023-01-29T06:42:40.265Z,102350.72
2023-01-29T06:45:08.959Z,102331.63
2023-01-29T06:47:37.984Z,102319.91
2023-01-29T06:50:06.324Z,102322.16
2023-01-29T06:52:34.075Z,102301.03
2023-01-29T06:55:01.657Z,102328.84
2023-01-29T06:57:30.830Z,102322.03
2023-01-29T06:59:58.406Z,102326.97
2023-01-29T07:02:26.091Z,102322.91
2023-01-29T07:04:55.142Z,102325.47
2023-01-29T07:07:22.778Z,102313.88
2023-01-29T07:09:50.367Z,102321.47
2023-01-29T07:12:18.013Z,102310.22
2023-01-29T07:14:45.572Z,102325.91
2023-01-29T07:17:13.172Z,102327.31
2023-01-29T07:19:40.749Z,102331.66
2023-01-29T07:22:09.662Z,102301.81
2023-01-29T07:24:37.247Z,102321.38
2023-01-29T07:27:04.825Z,102327.88
2023-01-29T07:29:32.414Z,102330.63
2023-01-29T07:32:00.107Z,102334.34
2023-01-29T07:34:27.749Z,102333.47
2023-01-29T07:36:56.798Z,102336.56
2023-01-29T07:39:25.939Z,102321.97
2023-01-29T07:41:53.515Z,102327.59
2023-01-29T07:44:21.097Z,102321.56
2023-01-29T07:46:48.695Z,102318.00
2023-01-29T07:49:16.572Z,102310.63
2023-01-29T07:51:44.144Z,102307.28
2023-01-29T07:54:11.743Z,102305.81
2023-01-29T07:56:40.705Z,102295.28
2023-01-29T07:59:08.293Z,102286.66
2023-01-29T08:01:36.074Z,102297.09
2023-01-29T08:04:03.683Z,102305.59
2023-01-29T08:06:31.284Z,102303.63
2023-01-29T08:08:59.701Z,102300.28
2023-01-29T08:11:27.283Z,102289.69
2023-01-29T08:13:57.218Z,102307.94
2023-01-29T08:16:24.847Z,102299.78
2023-01-29T08:18:52.511Z,102293.06
2023-01-29T08:21:22.488Z,102286.50
2023-01-29T08:23:50.053Z,102284.88
2023-01-29T08:26:17.677Z,102286.34
2023-01-29T08:28:45.368Z,102282.31
2023-01-29T08:31:20.480Z,102288.78
2023-01-29T08:33:48.424Z,102289.09
2023-01-29T08:36:16.081Z,102289.66
2023-01-29T08:38:43.706Z,102287.69
2023-01-29T08:41:11.291Z,102278.44
2023-01-29T08:43:38.928Z,102268.84
2023-01-29T08:46:07.816Z,102263.31
2023-01-29T08:48:36.931Z,102268.25
2023-01-29T08:51:05.188Z,102279.59
2023-01-29T08:53:33.206Z,102271.91
2023-01-29T08:56:00.861Z,102271.41
2023-01-29T08:58:28.446Z,102262.00
2023-01-29T09:00:56.305Z,102265.81
2023-01-29T09:03:23.954Z,102270.13
2023-01-29T09:05:52.895Z,102269.78
2023-01-29T09:08:20.514Z,102264.63
2023-01-29T09:10:48.091Z,102284.34
2023-01-29T09:13:15.854Z,102277.41
2023-01-29T09:15:43.429Z,102266.44
2023-01-29T09:18:11.152Z,102277.91
2023-01-29T09:20:38.929Z,102285.59
2023-01-29T09:23:09.596Z,102274.91
2023-01-29T09:25:38.348Z,102240.88
2023-01-29T09:28:07.160Z,102281.44
2023-01-29T09:30:37.576Z,102275.78
2023-01-29T09:33:05.592Z,102267.38
2023-01-29T09:35:34.112Z,102265.00
2023-01-29T09:38:01.729Z,102251.28
2023-01-29T09:40:37.332Z,102255.50
2023-01-29T09:43:08.709Z,102251.03
2023-01-29T09:45:37.761Z,102252.97
2023-01-29T09:48:06.728Z,102256.66
2023-01-29T09:50:38.497Z,102250.03
2023-01-29T09:53:13.445Z,102243.88
2023-01-29T09:55:47.338Z,102243.81
2023-01-29T09:58:20.563Z,102227.25
2023-01-29T10:00:55.438Z,102189.31
2023-01-29T10:03:38.273Z,102230.97
2023-01-29T10:06:22.182Z,102225.13
2023-01-29T10:09:16.013Z,102210.06
2023-01-29T10:11:58.227Z,102204.94
2023-01-29T10:14:37.785Z,102193.81
2023-01-29T10:17:22.843Z,102196.72
2023-01-29T10:20:11.195Z,102200.78
2023-01-29T10:22:59.969Z,102194.06
2023-01-29T10:25:28.169Z,102197.03
2023-01-29T10:27:59.898Z,102176.66
2023-01-29T10:30:34.114Z,102184.66
2023-01-29T10:33:05.111Z,102178.59
2023-01-29T10:35:36.794Z,102187.78
2023-01-29T10:38:22.396Z,102177.22
2023-01-29T10:40:56.939Z,102164.31
2023-01-29T10:43:37.588Z,102165.41
2023-01-29T10:46:15.331Z,102158.81
2023-01-29T10:48:54.558Z,102153.38
2023-01-29T10:51:36.435Z,102138.06
2023-01-29T10:54:15.718Z,102142.63
2023-01-29T10:56:55.950Z,102120.53
2023-01-29T10:59:50.036Z,102126.81
2023-01-29T11:02:22.047Z,102129.84
2023-01-29T11:04:49.997Z,102132.22
2023-01-29T11:07:20.360Z,102129.94
2023-01-29T11:09:56.581Z,102122.88
2023-01-29T11:12:30.317Z,102121.81
2023-01-29T11:15:05.561Z,102116.03
2023-01-29T11:17:33.303Z,102120.78
2023-01-29T11:20:00.933Z,102125.81
2023-01-29T11:22:29.899Z,102140.63
2023-01-29T11:25:16.415Z,102092.03
2023-01-29T11:27:46.732Z,102118.09
2023-01-29T11:30:28.175Z,102115.22
2023-01-29T11:33:07.821Z,102108.47
2023-01-29T11:35:36.504Z,102053.25
2023-01-29T11:38:10.267Z,102099.56
2023-01-29T11:40:41.548Z,102088.91
2023-01-29T11:43:20.972Z,102081.13
2023-01-29T11:45:52.251Z,102082.13
2023-01-29T11:48:22.405Z,102058.91
2023-01-29T11:50:56.123Z,102065.00
2023-01-29T11:53:29.074Z,102066.84
2023-01-29T11:55:57.033Z,102062.38
2023-01-29T11:58:30.404Z,102053.63
2023-01-29T12:01:01.092Z,102053.66
2023-01-29T12:03:35.365Z,102053.41
2023-01-29T12:06:07.671Z,102045.25
2023-01-29T12:08:38.475Z,102043.81
2023-01-29T12:11:12.581Z,102047.69
2023-01-29T12:13:43.186Z,102044.06
2023-01-29T12:16:22.539Z,101974.28
2023-01-29T12:18:54.845Z,102033.66
2023-01-29T12:21:31.331Z,102027.53
2023-01-29T12:24:02.664Z,102020.94
2023-01-29T12:26:33.717Z,102009.91
2023-01-29T12:29:16.474Z,102001.66
2023-01-29T12:31:53.293Z,102005.97
2023-01-29T12:34:28.389Z,101996.16
2023-01-29T12:37:00.442Z,101995.84
2023-01-29T12:39:28.259Z,101993.47
2023-01-29T12:42:03.358Z,101981.84
2023-01-29T12:44:34.579Z,101973.69
2023-01-29T12:47:08.377Z,101975.78
2023-01-29T12:49:40.571Z,101970.56
2023-01-29T12:52:13.472Z,101937.63
2023-01-29T12:54:46.777Z,101953.31
2023-01-29T12:57:22.033Z,101944.41
2023-01-29T12:59:56.208Z,101939.94
2023-01-29T13:02:33.448Z,101935.06
2023-01-29T13:05:05.636Z,101936.19
2023-01-29T13:07:37.508Z,101918.22
2023-01-29T13:10:12.823Z,101923.25
2023-01-29T13:12:47.112Z,101920.41
2023-01-29T13:15:24.197Z,101910.06
2023-01-29T13:17:58.735Z,101913.78
2023-01-29T13:20:30.481Z,101901.44
2023-01-29T13:23:04.437Z,101894.44
2023-01-29T13:25:32.156Z,101905.75
2023-01-29T13:27:59.780Z,101896.91
2023-01-29T13:30:30.514Z,101899.09
2023-01-29T13:33:10.294Z,101898.13
2023-01-29T13:35:41.968Z,101898.72
2023-01-29T13:38:24.706Z,101891.72
2023-01-29T13:40:52.498Z,101892.00
2023-01-29T13:43:22.702Z,101894.66
2023-01-29T13:45:53.804Z,101861.69
2023-01-29T13:48:27.629Z,101882.56
2023-01-29T13:50:57.372Z,101884.66
2023-01-29T13:53:27.866Z,101871.88
2023-01-29T13:55:55.587Z,101869.34
2023-01-29T13:58:53.750Z,101855.78
2023-01-29T14:02:03.915Z,101870.72
2023-01-29T14:04:34.040Z,101857.91
2023-01-29T14:07:17.723Z,101839.16
2023-01-29T14:10:04.119Z,101856.16
2023-01-29T14:12:40.088Z,101854.19
2023-01-29T14:15:22.648Z,101839.41
2023-01-29T14:18:19.750Z,101846.28
2023-01-29T14:21:07.451Z,101836.53
2023-01-29T14:23:44.279Z,101841.44
2023-01-29T14:26:25.064Z,101829.34
2023-01-29T14:28:57.362Z,101827.13
2023-01-29T14:31:37.688Z,101815.22
2023-01-29T14:34:09.006Z,101813.44
2023-01-29T14:36:42.825Z,101799.97
2023-01-29T14:39:23.373Z,101821.28
2023-01-29T14:41:52.806Z,101815.25
2023-01-29T14:44:49.421Z,101805.44
2023-01-29T14:47:20.551Z,101809.38
2023-01-29T14:49:52.581Z,101811.25
2023-01-29T14:52:26.592Z,101802.38
2023-01-29T14:54:58.421Z,101797.22
2023-01-29T14:57:26.651Z,101801.44
2023-01-29T14:59:58.034Z,101803.13
2023-01-29T15:02:33.680Z,101799.97
2023-01-29T15:05:04.511Z,101797.94
2023-01-29T15:07:39.394Z,101788.72
2023-01-29T15:10:24.107Z,101794.78
2023-01-29T15:12:56.858Z,101787.44
2023-01-29T15:15:33.209Z,101781.19
2023-01-29T15:18:06.459Z,101790.75
2023-01-29T15:20:35.794Z,101776.59
2023-01-29T15:23:06.120Z,101758.47
2023-01-29T15:25:37.824Z,101763.75
2023-01-29T15:28:10.129Z,101753.34
2023-01-29T15:30:38.833Z,101756.88
2023-01-29T15:33:11.618Z,101747.28
2023-01-29T15:35:41.843Z,101754.19
2023-01-29T15:38:17.918Z,101723.50
2023-01-29T15:40:53.813Z,101747.97
2023-01-29T15:43:23.417Z,101733.44
2023-01-29T15:45:52.060Z,101727.44
2023-01-29T15:48:23.908Z,101730.34
2023-01-29T15:50:54.990Z,101738.47
2023-01-29T15:53:37.376Z,101721.81
2023-01-29T15:56:09.850Z,101711.53
2023-01-29T15:58:40.248Z,101709.53
2023-01-29T16:01:08.185Z,101714.66
2023-01-29T16:03:38.428Z,101699.72
2023-01-29T16:06:08.701Z,101703.53
2023-01-29T16:08:41.020Z,101708.69
2023-01-29T16:11:09.769Z,101707.13
2023-01-29T16:13:41.680Z,101702.38
2023-01-29T16:16:21.465Z,101696.47
2023-01-29T16:18:59.878Z,101695.97
2023-01-29T16:21:31.386Z,101691.00
2023-01-29T16:24:03.579Z,101691.88
2023-01-29T16:26:34.976Z,101687.63
2023-01-29T16:29:06.355Z,101691.28
2023-01-29T16:31:34.637Z,101669.81
2023-01-29T16:34:07.990Z,101685.31
2023-01-29T16:36:35.794Z,101690.22
2023-01-29T16:39:14.055Z,101700.69
2023-01-29T16:41:41.730Z,101686.50
2023-01-29T16:44:33.635Z,101689.97
2023-01-29T16:47:12.690Z,101681.03
2023-01-29T16:49:46.498Z,101689.13
2023-01-29T16:52:20.190Z,101670.88
2023-01-29T16:54:49.201Z,101662.22
2023-01-29T16:57:20.485Z,101664.03
2023-01-29T16:59:48.612Z,101659.59
2023-01-29T17:02:23.494Z,101656.06
2023-01-29T17:04:53.259Z,101667.03
2023-01-29T17:07:22.234Z,101647.03
2023-01-29T17:09:54.218Z,101652.13
2023-01-29T17:12:26.126Z,101637.78
2023-01-29T17:14:55.750Z,101652.38
2023-01-29T17:17:30.181Z,101642.00
2023-01-29T17:19:58.596Z,101635.22
2023-01-29T17:22:26.190Z,101631.16
2023-01-29T17:24:55.190Z,101622.41
2023-01-29T17:27:24.033Z,101635.16
2023-01-29T17:29:52.753Z,101627.91
2023-01-29T17:32:21.222Z,101635.88
2023-01-29T17:34:48.859Z,101622.91
2023-01-29T17:37:17.434Z,101613.78
2023-01-29T17:39:47.264Z,101608.59
2023-01-29T17:42:16.379Z,101593.34
2023-01-29T17:44:44.085Z,101613.31
2023-01-29T17:47:14.978Z,101617.31
2023-01-29T17:49:43.096Z,101620.63
2023-01-29T17:52:10.845Z,101609.47
2023-01-29T17:54:38.639Z,101604.94
2023-01-29T17:57:06.228Z,101598.75
2023-01-29T17:59:35.181Z,101587.34
2023-01-29T18:02:02.824Z,101588.53
2023-01-29T18:04:30.431Z,101585.31
2023-01-29T18:06:58.910Z,101587.56
2023-01-29T18:09:27.376Z,101575.06
2023-01-29T18:11:55.001Z,101576.66
2023-01-29T18:14:22.587Z,101577.66
2023-01-29T18:16:51.533Z,101561.81
2023-01-29T18:19:23.029Z,101539.59
2023-01-29T18:21:52.448Z,101527.84
2023-01-29T18:24:20.736Z,101542.78
2023-01-29T18:26:48.768Z,101527.03
2023-01-29T18:29:16.425Z,101514.97
2023-01-29T18:31:44.226Z,101513.06
2023-01-29T18:34:13.300Z,101506.41
2023-01-29T18:36:40.871Z,101503.63
2023-01-29T18:39:08.529Z,101509.09
2023-01-29T18:41:36.164Z,101495.91
2023-01-29T18:44:03.825Z,101503.69
2023-01-29T18:46:31.410Z,101487.16
2023-01-29T18:48:58.990Z,101497.59
2023-01-29T18:51:28.070Z,101481.09
2023-01-29T18:53:55.687Z,101478.38
2023-01-29T18:56:23.290Z,101467.56
2023-01-29T18:58:55.788Z,101469.69
2023-01-29T19:01:24.646Z,101444.72
2023-01-29T19:03:52.279Z,101442.94
2023-01-29T19:06:19.936Z,101442.09
2023-01-29T19:08:48.995Z,101442.03
2023-01-29T19:11:18.170Z,101434.47
2023-01-29T19:13:47.858Z,101435.91
2023-01-29T19:16:15.435Z,101429.97
2023-01-29T19:18:43.556Z,101430.25
2023-01-29T19:21:13.075Z,101418.13
2023-01-29T19:23:41.088Z,101428.91
2023-01-29T19:26:10.283Z,101418.56
2023-01-29T19:28:38.016Z,101412.28
2023-01-29T19:31:05.956Z,101406.44
2023-01-29T19:33:33.704Z,101402.84
2023-01-29T19:36:01.390Z,101390.38
2023-01-29T19:38:33.255Z,101396.44
2023-01-29T19:41:01.239Z,101397.53
2023-01-29T19:43:31.626Z,101386.00
2023-01-29T19:46:00.302Z,101378.00
2023-01-29T19:48:28.947Z,101389.94
2023-01-29T19:50:57.697Z,101342.19
2023-01-29T19:53:25.692Z,101366.25
2023-01-29T19:56:00.795Z,101361.88
2023-01-29T19:58:29.324Z,101360.25
2023-01-29T20:00:59.868Z,101353.50
2023-01-29T20:03:28.778Z,101365.03
2023-01-29T20:05:56.892Z,101366.66
2023-01-29T20:08:24.822Z,101358.53
2023-01-29T20:10:52.401Z,101362.84
2023-01-29T20:13:20.037Z,101359.09
2023-01-29T20:15:48.408Z,101356.47
2023-01-29T20:18:18.069Z,101348.78
2023-01-29T20:20:47.975Z,101342.13
2023-01-29T20:23:25.065Z,101331.44
2023-01-29T20:26:03.744Z,101316.00
2023-01-29T20:28:31.448Z,101336.09
2023-01-29T20:30:59.194Z,101336.22
2023-01-29T20:33:29.024Z,101328.41
2023-01-29T20:35:57.860Z,101285.41
2023-01-29T20:38:30.101Z,101313.34
2023-01-29T20:41:03.042Z,101308.66
2023-01-29T20:43:30.724Z,101291.53
2023-01-29T20:45:58.672Z,101298.41
2023-01-29T20:48:26.515Z,101292.88
2023-01-29T20:50:55.854Z,101285.50
2023-01-29T20:53:23.572Z,101282.38
2023-01-29T20:55:51.335Z,101282.38
2023-01-29T20:58:19.205Z,101293.25
2023-01-29T21:00:47.627Z,101280.59
2023-01-29T21:03:15.288Z,101274.72
2023-01-29T21:05:42.923Z,101259.38
2023-01-29T21:08:11.949Z,101254.25
2023-01-29T21:10:40.164Z,101237.63
2023-01-29T21:13:08.688Z,101228.38
2023-01-29T21:15:36.310Z,101231.34
2023-01-29T21:18:05.143Z,101196.72
2023-01-29T21:20:33.043Z,101226.94
2023-01-29T21:23:04.155Z,101237.34
2023-01-29T21:25:34.270Z,101236.47
2023-01-29T21:28:03.637Z,101234.56
2023-01-29T21:30:31.544Z,101240.81
2023-01-29T21:32:59.159Z,101238.53
2023-01-29T21:35:27.068Z,101208.13
2023-01-29T21:37:54.968Z,101230.44
2023-01-29T21:40:24.962Z,101222.75
2023-01-29T21:43:12.659Z,101212.00
2023-01-29T21:45:40.977Z,101203.22
2023-01-29T21:48:09.015Z,101196.97
2023-01-29T21:50:37.046Z,101199.97
2023-01-29T21:53:05.325Z,101195.66
2023-01-29T21:55:33.445Z,101189.06
2023-01-29T21:58:02.466Z,101192.38
2023-01-29T22:00:30.059Z,101186.66
2023-01-29T22:02:57.873Z,101207.91
2023-01-29T22:05:26.438Z,101202.50
2023-01-29T22:07:54.012Z,101196.63
2023-01-29T22:10:22.330Z,101187.88
2023-01-29T22:12:50.267Z,101194.94
2023-01-29T22:15:19.369Z,101176.69
2023-01-29T22:17:47.088Z,101158.84
2023-01-29T22:20:16.209Z,101142.22
2023-01-29T22:22:44.007Z,101135.75
2023-01-29T22:25:11.765Z,101112.69
2023-01-29T22:27:39.396Z,101123.75
2023-01-29T22:30:08.397Z,101127.09
2023-01-29T22:32:37.464Z,101118.72
2023-01-29T22:35:05.678Z,101109.78
2023-01-29T22:37:33.263Z,101104.03
2023-01-29T22:40:00.854Z,101108.38
2023-01-29T22:42:28.817Z,101093.63
2023-01-29T22:44:56.498Z,101091.72
2023-01-29T22:47:24.175Z,101088.16
2023-01-29T22:49:53.112Z,101079.75
2023-01-29T22:52:22.493Z,101080.59
2023-01-29T22:54:51.368Z,101073.09
2023-01-29T22:57:19.249Z,101066.81
2023-01-29T22:59:46.932Z,101046.50
2023-01-29T23:02:14.506Z,101037.38
2023-01-29T23:04:42.147Z,101032.94
2023-01-29T23:07:11.315Z,101019.25
2023-01-29T23:09:38.948Z,101008.66
2023-01-29T23:12:07.865Z,101004.50
2023-01-29T23:14:35.565Z,101006.31
2023-01-29T23:17:03.186Z,100975.28
2023-01-29T23:19:30.943Z,100988.38
2023-01-29T23:21:58.753Z,100966.84
2023-01-29T23:24:27.715Z,100964.22
2023-01-29T23:27:12.940Z,100942.81
2023-01-29T23:29:40.520Z,100929.94
2023-01-29T23:32:08.129Z,100934.38
2023-01-29T23:34:35.751Z,100917.28
2023-01-29T23:37:03.423Z,100914.03
2023-01-29T23:39:32.425Z,100881.41
2023-01-29T23:42:00.119Z,100913.25
2023-01-29T23:44:27.845Z,100918.38
2023-01-29T23:46:55.953Z,100933.91
2023-01-29T23:49:23.625Z,100918.53
2023-01-29T23:51:51.611Z,100910.84
2023-01-29T23:54:19.250Z,100894.38
2023-01-29T23:56:48.237Z,100901.31
2023-01-29T23:59:16.140Z,100849.94
